createdAt,value
2023-03-02T00:00:03.378Z,77.4
2023-03-02T00:03:03.535Z,77.4
2023-03-02T00:06:03.368Z,77.4
2023-03-02T00:09:03.367Z,77.4
2023-03-02T00:12:03.286Z,77.4
2023-03-02T00:15:03.293Z,77.4
2023-03-02T00:18:03.397Z,77.4
2023-03-02T00:21:03.370Z,77.4
2023-03-02T00:24:03.302Z,77.4
2023-03-02T00:27:03.321Z,77.4
2023-03-02T00:30:03.316Z,77.4
2023-03-02T00:33:03.335Z,77.4
2023-03-02T00:36:03.575Z,77.4
2023-03-02T00:39:03.324Z,77.4
2023-03-02T00:42:03.387Z,77.4
2023-03-02T00:45:03.338Z,78
2023-03-02T00:48:03.343Z,78
2023-03-02T00:51:03.354Z,78
2023-03-02T00:54:03.327Z,78
2023-03-02T00:57:03.324Z,78
2023-03-02T01:00:03.358Z,78
2023-03-02T01:03:03.502Z,78
2023-03-02T01:06:03.355Z,78
2023-03-02T01:09:03.348Z,78
2023-03-02T01:12:03.314Z,78
2023-03-02T01:15:03.337Z,78
2023-03-02T01:18:03.344Z,78
2023-03-02T01:21:03.320Z,78
2023-03-02T01:24:03.323Z,78
2023-03-02T01:27:03.343Z,78.9
2023-03-02T01:30:03.331Z,78.9
2023-03-02T01:33:03.312Z,78.9
2023-03-02T01:36:03.643Z,78.9
2023-03-02T01:39:03.380Z,78.9
2023-03-02T01:42:03.306Z,78.9
2023-03-02T01:45:03.384Z,78.9
2023-03-02T01:48:03.334Z,78.9
2023-03-02T01:51:03.406Z,78.9
2023-03-02T01:54:03.415Z,78.9
2023-03-02T01:57:03.253Z,78.9
2023-03-02T02:00:03.502Z,78.9
2023-03-02T02:03:03.310Z,78.9
2023-03-02T02:06:03.891Z,79.2
2023-03-02T02:09:03.438Z,79.2
2023-03-02T02:12:03.486Z,79.2
2023-03-02T02:15:03.373Z,79.2
2023-03-02T02:18:03.387Z,79.2
2023-03-02T02:21:03.340Z,79.2
2023-03-02T02:24:03.351Z,79.2
2023-03-02T02:27:03.372Z,79.2
2023-03-02T02:30:03.362Z,79.2
2023-03-02T02:33:03.325Z,79.5
2023-03-02T02:36:03.603Z,79.5
2023-03-02T02:39:03.303Z,79.5
2023-03-02T02:42:03.384Z,79.5
2023-03-02T02:45:03.335Z,79.5
2023-03-02T02:48:03.354Z,79.5
2023-03-02T02:51:03.490Z,79.5
2023-03-02T02:54:03.373Z,79.5
2023-03-02T02:57:03.311Z,79.5
2023-03-02T03:00:03.415Z,79.5
2023-03-02T03:03:03.412Z,79.5
2023-03-02T03:09:03.333Z,79.5
2023-03-02T03:12:03.373Z,79.5
2023-03-02T03:15:03.465Z,79.5
2023-03-02T03:18:03.364Z,79.5
2023-03-02T03:21:03.361Z,79.5
2023-03-02T03:24:03.401Z,79.5
2023-03-02T03:27:03.380Z,79.5
2023-03-02T03:30:03.389Z,79.5
2023-03-02T03:33:03.361Z,79.5
2023-03-02T03:36:03.607Z,79.5
2023-03-02T03:39:03.358Z,79.5
2023-03-02T03:42:03.311Z,79.5
2023-03-02T03:45:03.425Z,79.5
2023-03-02T03:48:03.353Z,79.5
2023-03-02T03:51:03.297Z,79.5
2023-03-02T03:54:03.319Z,79.5
2023-03-02T03:57:03.290Z,79.5
2023-03-02T04:00:03.337Z,80.3
2023-03-02T04:03:03.428Z,80.3
2023-03-02T04:06:03.329Z,80.3
2023-03-02T04:09:03.335Z,80.3
2023-03-02T04:12:03.372Z,80.3
2023-03-02T04:15:03.377Z,80.3
2023-03-02T04:18:03.356Z,80.3
2023-03-02T04:21:03.350Z,80.3
2023-03-02T04:24:03.412Z,80.3
2023-03-02T04:27:03.308Z,80.3
2023-03-02T04:30:03.393Z,80.6
2023-03-02T04:33:03.269Z,80.6
2023-03-02T04:36:03.753Z,80.6
2023-03-02T04:39:03.335Z,80.6
2023-03-02T04:42:03.372Z,80.6
2023-03-02T04:45:03.341Z,80.6
2023-03-02T04:48:03.307Z,80.6
2023-03-02T04:51:03.314Z,80.6
2023-03-02T04:54:03.450Z,80.6
2023-03-02T04:57:03.295Z,80.6
2023-03-02T05:00:03.406Z,80.6
2023-03-02T05:03:03.360Z,80.6
2023-03-02T05:06:03.361Z,80.6
2023-03-02T05:09:03.314Z,80.6
2023-03-02T05:12:03.369Z,80.6
2023-03-02T05:15:03.337Z,80.6
2023-03-02T05:18:03.328Z,80.6
2023-03-02T05:21:03.334Z,80.6
2023-03-02T05:24:03.321Z,80.6
2023-03-02T05:27:03.299Z,80.6
2023-03-02T05:30:03.324Z,80.6
2023-03-02T05:33:03.358Z,80.6
2023-03-02T05:36:03.644Z,80.6
2023-03-02T05:39:03.402Z,80.6
2023-03-02T05:42:03.321Z,80.6
2023-03-02T05:45:03.355Z,80.6
2023-03-02T05:48:03.392Z,80.6
2023-03-02T05:51:03.371Z,80.6
2023-03-02T05:54:03.405Z,80.6
2023-03-02T05:57:03.411Z,80.6
2023-03-02T06:00:03.406Z,80.6
2023-03-02T06:03:03.516Z,86.8
2023-03-02T06:06:03.306Z,86.8
2023-03-02T06:09:03.470Z,86.8
2023-03-02T06:12:03.397Z,86.8
2023-03-02T06:15:03.407Z,86.8
2023-03-02T06:18:03.463Z,86.8
2023-03-02T06:21:03.419Z,86.8
2023-03-02T06:24:03.427Z,86.8
2023-03-02T06:27:03.410Z,86.8
2023-03-02T06:30:03.800Z,89.5
2023-03-02T06:33:03.316Z,89.5
2023-03-02T06:36:03.912Z,89.5
2023-03-02T06:39:03.396Z,89.5
2023-03-02T06:42:03.469Z,89.5
2023-03-02T06:45:03.409Z,89.5
2023-03-02T06:48:03.396Z,89.5
2023-03-02T06:51:03.318Z,89.5
2023-03-02T06:54:03.368Z,89.5
2023-03-02T06:57:03.391Z,91.2
2023-03-02T07:00:03.464Z,91.2
2023-03-02T07:03:03.366Z,91.2
2023-03-02T07:06:03.360Z,91.2
2023-03-02T07:09:03.398Z,91.2
2023-03-02T07:12:03.351Z,91.2
2023-03-02T07:15:03.406Z,91.2
2023-03-02T07:18:03.364Z,91.2
2023-03-02T07:21:03.369Z,91.2
2023-03-02T07:24:03.400Z,91.2
2023-03-02T07:27:03.404Z,91.2
2023-03-02T07:30:03.671Z,92.3
2023-03-02T07:33:03.353Z,92.3
2023-03-02T07:36:03.483Z,92.3
2023-03-02T07:39:03.380Z,92.3
2023-03-02T07:42:03.398Z,92.3
2023-03-02T07:45:03.508Z,92.3
2023-03-02T07:48:03.441Z,92.3
2023-03-02T07:51:03.384Z,92.3
2023-03-02T07:54:03.431Z,92.3
2023-03-02T07:57:03.434Z,92.3
2023-03-02T08:00:03.947Z,92.7
2023-03-02T08:03:03.533Z,92.6
2023-03-02T08:06:03.353Z,92.6
2023-03-02T08:09:03.502Z,92.6
2023-03-02T08:12:03.386Z,92.6
2023-03-02T08:15:07.138Z,92.6
2023-03-02T08:18:03.456Z,92.6
2023-03-02T08:21:03.424Z,92.6
2023-03-02T08:24:03.562Z,92.6
2023-03-02T08:27:03.418Z,92.8
2023-03-02T08:30:03.461Z,92.8
2023-03-02T08:33:09.478Z,92.8
2023-03-02T08:36:03.645Z,92.8
2023-03-02T08:39:03.435Z,92.8
2023-03-02T08:42:03.351Z,92.8
2023-03-02T08:45:03.379Z,92.8
2023-03-02T08:48:03.387Z,92.8
2023-03-02T08:51:03.338Z,92.8
2023-03-02T08:54:03.472Z,92.8
2023-03-02T08:57:03.413Z,93
2023-03-02T09:00:03.425Z,93
2023-03-02T09:03:03.393Z,93
2023-03-02T09:06:03.337Z,93
2023-03-02T09:09:03.543Z,93
2023-03-02T09:12:03.470Z,93
2023-03-02T09:15:03.477Z,93
2023-03-02T09:18:03.579Z,93
2023-03-02T09:21:03.538Z,93
2023-03-02T09:24:03.353Z,93
2023-03-02T09:27:03.647Z,93
2023-03-02T09:30:03.451Z,92.8
2023-03-02T09:33:03.639Z,92.8
2023-03-02T09:36:03.415Z,92.8
2023-03-02T09:39:03.402Z,92.8
2023-03-02T09:42:03.385Z,92.8
2023-03-02T09:45:03.466Z,92.8
2023-03-02T09:48:03.447Z,92.8
2023-03-02T09:51:03.354Z,92.8
2023-03-02T09:54:03.614Z,92.8
2023-03-02T09:57:03.393Z,92.7
2023-03-02T10:00:21.309Z,92.7
2023-03-02T10:03:19.641Z,92.7
2023-03-02T10:06:03.433Z,92.7
2023-03-02T10:09:03.394Z,92.7
2023-03-02T10:12:03.330Z,92.7
2023-03-02T10:15:03.367Z,92.7
2023-03-02T10:18:03.450Z,92.7
2023-03-02T10:21:03.431Z,91.7
2023-03-02T10:24:03.352Z,91.7
2023-03-02T10:27:03.386Z,91.7
2023-03-02T10:30:03.407Z,91.7
2023-03-02T10:33:03.428Z,91.7
2023-03-02T10:36:03.403Z,91.7
2023-03-02T10:39:03.363Z,90
2023-03-02T10:42:03.563Z,90
2023-03-02T10:45:03.369Z,90
2023-03-02T10:48:03.361Z,90
2023-03-02T10:51:03.398Z,90
2023-03-02T10:54:03.412Z,90
2023-03-02T10:57:03.326Z,90
2023-03-02T11:00:03.428Z,90
2023-03-02T11:03:03.371Z,90
2023-03-02T11:06:03.455Z,90
2023-03-02T11:09:03.430Z,87.9
2023-03-02T11:12:03.604Z,87.9
2023-03-02T11:15:03.422Z,87.9
2023-03-02T11:18:03.361Z,87.9
2023-03-02T11:21:03.332Z,87.9
2023-03-02T11:24:03.399Z,87.9
2023-03-02T11:27:03.360Z,87.9
2023-03-02T11:30:03.397Z,87.7
2023-03-02T11:33:03.559Z,87.7
2023-03-02T11:36:03.596Z,87.7
2023-03-02T11:39:03.438Z,87.7
2023-03-02T11:42:03.589Z,87.7
2023-03-02T11:45:03.402Z,87.7
2023-03-02T11:48:06.522Z,87.7
2023-03-02T11:51:03.393Z,86.5
2023-03-02T11:54:03.582Z,86.5
2023-03-02T11:57:03.324Z,86.5
2023-03-02T12:00:03.491Z,86.5
2023-03-02T12:03:04.036Z,86.5
2023-03-02T12:06:04.528Z,86
2023-03-02T12:09:03.504Z,86
2023-03-02T12:12:04.859Z,86
2023-03-02T12:15:03.419Z,86
2023-03-02T12:18:03.461Z,86
2023-03-02T12:21:03.397Z,86
2023-03-02T12:24:03.418Z,86
2023-03-02T12:27:03.397Z,86
2023-03-02T12:30:03.530Z,86
2023-03-02T12:33:03.381Z,86
2023-03-02T12:36:03.388Z,86
2023-03-02T12:39:03.349Z,85
2023-03-02T12:42:03.480Z,85
2023-03-02T12:45:03.689Z,85
2023-03-02T12:48:04.396Z,85
2023-03-02T12:51:03.546Z,85
2023-03-02T12:54:03.439Z,85
2023-03-02T12:57:03.449Z,85.2
2023-03-02T13:00:03.681Z,85.2
2023-03-02T13:03:03.425Z,85.2
2023-03-02T13:06:03.447Z,85.2
2023-03-02T13:09:03.521Z,85.2
2023-03-02T13:12:03.383Z,85.2
2023-03-02T13:15:03.383Z,85.2
2023-03-02T13:18:03.423Z,85.2
2023-03-02T13:21:03.429Z,85.2
2023-03-02T13:24:03.416Z,85.2
2023-03-02T13:27:03.420Z,85.2
2023-03-02T13:30:04.640Z,85.2
2023-03-02T13:33:03.336Z,85.2
2023-03-02T13:36:03.338Z,84.6
2023-03-02T13:39:03.339Z,84.6
2023-03-02T13:42:03.449Z,84.6
2023-03-02T13:45:03.357Z,84.6
2023-03-02T13:48:03.420Z,84.6
2023-03-02T13:51:03.446Z,84.6
2023-03-02T13:54:03.460Z,84.6
2023-03-02T13:57:03.383Z,84.6
2023-03-02T14:00:03.463Z,84.8
2023-03-02T14:03:03.331Z,84.8
2023-03-02T14:06:03.384Z,84.8
2023-03-02T14:09:03.360Z,84.8
2023-03-02T14:12:03.414Z,84.8
2023-03-02T14:15:03.663Z,84.8
2023-03-02T14:18:03.531Z,84.8
2023-03-02T14:21:03.502Z,84.8
2023-03-02T14:24:03.738Z,84.8
2023-03-02T14:27:03.394Z,84.8
2023-03-02T14:30:03.649Z,84.8
2023-03-02T14:33:03.383Z,84.8
2023-03-02T14:36:03.562Z,84.8
2023-03-02T14:39:03.449Z,84.8
2023-03-02T14:42:03.366Z,84.2
2023-03-02T14:45:03.424Z,84.2
2023-03-02T14:48:03.418Z,84.2
2023-03-02T14:51:03.720Z,84.3
2023-03-02T14:54:03.393Z,84.3
2023-03-02T14:57:03.335Z,84.3
2023-03-02T15:00:03.642Z,84.3
2023-03-02T15:03:04.012Z,84.3
2023-03-02T15:06:04.617Z,84.3
2023-03-02T15:09:03.501Z,84.3
2023-03-02T15:12:03.383Z,84.3
2023-03-02T15:15:03.625Z,84.3
2023-03-02T15:18:03.416Z,85.7
2023-03-02T15:21:03.444Z,85.7
2023-03-02T15:24:03.545Z,85.7
2023-03-02T15:27:03.446Z,85.7
2023-03-02T15:30:03.501Z,85.7
2023-03-02T15:33:03.392Z,85.7
2023-03-02T15:36:03.439Z,85.7
2023-03-02T15:39:03.414Z,85.7
2023-03-02T15:42:03.485Z,85.7
2023-03-02T15:45:03.372Z,85.7
2023-03-02T15:48:03.403Z,85.7
2023-03-02T15:51:03.363Z,85.7
2023-03-02T15:54:03.366Z,86.1
2023-03-02T15:57:03.398Z,86.1
2023-03-02T16:00:05.272Z,86.1
2023-03-02T16:03:03.542Z,86.1
2023-03-02T16:06:03.326Z,86.1
2023-03-02T16:09:03.368Z,86.1
2023-03-02T16:12:03.391Z,86.1
2023-03-02T16:15:03.398Z,86.1
2023-03-02T16:18:03.373Z,86.1
2023-03-02T16:21:03.400Z,86.1
2023-03-02T16:24:03.548Z,86.1
2023-03-02T16:27:03.374Z,86.1
2023-03-02T16:30:03.497Z,86.1
2023-03-02T16:33:03.393Z,86.1
2023-03-02T16:36:03.425Z,86.1
2023-03-02T16:39:03.367Z,87.8
2023-03-02T16:42:03.378Z,87.8
2023-03-02T16:45:03.386Z,87.8
2023-03-02T16:48:03.424Z,87.8
2023-03-02T16:51:03.511Z,87.8
2023-03-02T16:54:03.436Z,87.8
2023-03-02T16:57:03.397Z,87.8
2023-03-02T17:00:03.445Z,88.4
2023-03-02T17:03:03.344Z,88.4
2023-03-02T17:06:03.335Z,88.4
2023-03-02T17:09:03.431Z,88.4
2023-03-02T17:12:03.356Z,88.4
2023-03-02T17:15:03.394Z,88.4
2023-03-02T17:18:03.315Z,88.4
2023-03-02T17:21:03.384Z,88.4
2023-03-02T17:24:03.381Z,89.4
2023-03-02T17:27:04.192Z,89.4
2023-03-02T17:30:03.375Z,89.4
2023-03-02T17:33:03.355Z,89.4
2023-03-02T17:36:03.337Z,89.4
2023-03-02T17:39:03.303Z,89.4
2023-03-02T17:42:03.307Z,89.4
2023-03-02T17:45:03.393Z,89.4
2023-03-02T17:48:03.380Z,89.4
2023-03-02T17:51:03.407Z,90.5
2023-03-02T17:54:03.330Z,90.5
2023-03-02T17:57:03.341Z,90.5
2023-03-02T18:00:03.447Z,90.5
2023-03-02T18:03:03.419Z,90.5
2023-03-02T18:06:03.353Z,90.5
2023-03-02T18:09:03.309Z,90.5
2023-03-02T18:12:03.325Z,90.5
2023-03-02T18:15:03.446Z,90.5
2023-03-02T18:18:03.372Z,90.5
2023-03-02T18:21:03.313Z,90.5
2023-03-02T18:24:03.367Z,90.5
2023-03-02T18:27:03.340Z,90.5
2023-03-02T18:30:03.464Z,90.5
2023-03-02T18:33:03.389Z,90.5
2023-03-02T18:36:03.304Z,90.9
2023-03-02T18:39:03.354Z,90.9
2023-03-02T18:42:03.367Z,90.9
2023-03-02T18:45:03.349Z,90.9
2023-03-02T18:48:03.368Z,90.9
2023-03-02T18:51:03.353Z,90.9
2023-03-02T18:54:03.349Z,90.9
2023-03-02T18:57:03.364Z,90.9
2023-03-02T19:00:03.415Z,90.9
2023-03-02T19:03:03.325Z,90.9
2023-03-02T19:06:03.378Z,90.9
2023-03-02T19:09:03.317Z,90.9
2023-03-02T19:12:03.343Z,90.9
2023-03-02T19:15:03.350Z,90.9
2023-03-02T19:18:03.311Z,90.9
2023-03-02T19:21:03.346Z,90.9
2023-03-02T19:24:03.313Z,90.9
2023-03-02T19:27:03.335Z,90.9
2023-03-02T19:30:03.323Z,90.9
2023-03-02T19:33:03.361Z,90.9
2023-03-02T19:36:03.420Z,90.9
2023-03-02T19:39:03.344Z,90.9
2023-03-02T19:42:03.353Z,90.9
2023-03-02T19:45:03.363Z,90.9
2023-03-02T19:48:03.347Z,90.9
2023-03-02T19:51:03.327Z,90.9
2023-03-02T19:54:06.396Z,90.9
2023-03-02T19:57:03.351Z,90.9
2023-03-02T20:00:03.377Z,90.9
2023-03-02T20:03:03.327Z,90.9
2023-03-02T20:06:03.347Z,90.9
2023-03-02T20:09:03.561Z,90.9
2023-03-02T20:12:03.296Z,90.9
2023-03-02T20:15:03.343Z,90.9
2023-03-02T20:18:03.321Z,90.9
2023-03-02T20:21:03.301Z,90.9
2023-03-02T20:24:03.311Z,90.9
2023-03-02T20:27:03.309Z,90.9
2023-03-02T20:30:03.318Z,90.9
2023-03-02T20:33:03.310Z,90.9
2023-03-02T20:36:03.342Z,90.9
2023-03-02T20:39:03.379Z,90.9
2023-03-02T20:42:03.311Z,90.9
2023-03-02T20:45:03.522Z,90.9
2023-03-02T20:48:03.275Z,90.9
2023-03-02T20:51:03.329Z,90.9
2023-03-02T20:54:03.319Z,91.2
2023-03-02T20:57:03.348Z,91.2
2023-03-02T21:00:03.500Z,91.2
2023-03-02T21:03:03.334Z,91.2
2023-03-02T21:06:03.269Z,91.2
2023-03-02T21:09:03.347Z,91.2
2023-03-02T21:12:03.557Z,91.4
2023-03-02T21:15:03.364Z,91.4
2023-03-02T21:18:03.291Z,91.4
2023-03-02T21:21:03.332Z,91.4
2023-03-02T21:24:03.345Z,91.4
2023-03-02T21:27:03.319Z,91.4
2023-03-02T21:30:03.331Z,91.4
2023-03-02T21:33:03.402Z,91.4
2023-03-02T21:36:03.362Z,91.4
2023-03-02T21:39:03.328Z,91.4
2023-03-02T21:42:03.447Z,91.4
2023-03-02T21:45:03.645Z,91.6
2023-03-02T21:48:03.259Z,91.6
2023-03-02T21:51:03.293Z,91.6
2023-03-02T21:54:03.392Z,91.6
2023-03-02T21:57:03.429Z,91.6
2023-03-02T22:00:03.463Z,91.6
2023-03-02T22:03:03.307Z,91.6
2023-03-02T22:06:03.389Z,91.6
2023-03-02T22:09:03.313Z,91.6
2023-03-02T22:12:03.304Z,91.6
2023-03-02T22:15:03.396Z,91.6
2023-03-02T22:18:03.412Z,91.6
2023-03-02T22:21:03.294Z,91.6
2023-03-02T22:24:03.333Z,91.6
2023-03-02T22:27:03.389Z,91.7
2023-03-02T22:30:03.413Z,91.7
2023-03-02T22:33:03.318Z,91.7
2023-03-02T22:36:03.441Z,91.7
2023-03-02T22:39:03.293Z,91.7
2023-03-02T22:42:03.518Z,91.7
2023-03-02T22:45:03.355Z,91.7
2023-03-02T22:48:03.364Z,91.7
2023-03-02T22:51:03.329Z,91.7
2023-03-02T22:54:03.354Z,91.7
2023-03-02T22:57:03.246Z,91.7
2023-03-02T23:00:03.741Z,91.7
2023-03-02T23:03:03.330Z,91.7
2023-03-02T23:06:03.316Z,91.7
2023-03-02T23:09:03.355Z,91.7
2023-03-02T23:12:03.355Z,91.7
2023-03-02T23:15:03.341Z,91.7
2023-03-02T23:18:03.393Z,91.7
2023-03-02T23:21:03.306Z,91.7
2023-03-02T23:24:03.399Z,91.7
2023-03-02T23:27:03.321Z,91.7
2023-03-02T23:30:03.346Z,91.7
2023-03-02T23:33:03.291Z,91.7
2023-03-02T23:36:03.378Z,91.7
2023-03-02T23:39:03.311Z,91.7
2023-03-02T23:42:03.513Z,91.7
2023-03-02T23:45:03.329Z,91.9
2023-03-02T23:48:03.549Z,91.9
2023-03-02T23:51:03.352Z,91.9
2023-03-02T23:54:07.044Z,91.9
2023-03-02T23:57:03.444Z,91.9
